Time;durP1;ratioP1;P1;durP2;ratioP2;P2;SDS_P1;SDS_P2;PMS_P1;PMS_P2;Temp;Humidity;BMP_temperature;BMP_pressure;BME280_temperature;BME280_humidity;BME280_pressure;Samples;Min_cycle;Max_cycle;Signal;HPM_P1;HPM_P2
2022/09/24 00:00:56;;;;;;;;;;;;;;;14.59;53.29;100591.81;5030585;28;19920;-38
2022/09/24 00:03:23;;;;;;;;;;;;;;;14.57;53.29;100590.97;5037627;28;19924;-38
2022/09/24 00:05:50;;;;;;;;;;;;;;;14.58;53.33;100584.75;5050356;28;19921;-36
2022/09/24 00:08:15;;;;;;;;;;;;;;;14.55;53.29;100586.63;5045094;28;20011;-36
2022/09/24 00:10:41;;;;;;;;;;;;;;;14.53;53.33;100586.66;5039380;28;19913;-35
2022/09/24 00:13:07;;;;;;;;;;;;;;;14.52;53.51;100586.72;5031303;28;19927;-35
2022/09/24 00:15:36;;;;;;;;;;;;;;;14.50;53.56;100582.31;5043753;28;19928;-35
2022/09/24 00:18:02;;;;;;;;;;;;;;;14.49;53.63;100580.59;5046578;28;19923;-35
2022/09/24 00:20:31;;;;;;;;;;;;;;;14.50;53.61;100574.38;5049954;28;19962;-36
2022/09/24 00:22:57;;;;;;;;;;;;;;;14.46;53.67;100580.66;5047932;28;19917;-36
2022/09/24 00:28:07;;;;;;;;;;;;;;;14.44;53.62;100585.13;5047665;28;20014;-35
2022/09/24 00:30:33;;;;;;;;;;;;;;;14.41;53.68;100579.06;5054780;28;20229;-36
2022/09/24 00:32:58;;;;;;;;;;;;;;;14.39;53.85;100584.41;5044642;28;19917;-36
2022/09/24 00:35:24;;;;;;;;;;;;;;;14.39;53.78;100588.81;5049458;28;19928;-35
2022/09/24 00:37:49;;;;;;;;;;;;;;;14.35;53.68;100585.38;5052377;28;19917;-38
2022/09/24 00:40:14;;;;;;;;;;;;;;;14.36;53.77;100584.47;5054144;28;19928;-38
2022/09/24 00:42:39;;;;;;;;;;;;;;;14.34;53.72;100571.25;5034841;28;19923;-38
2022/09/24 00:45:07;;;;;;;;;;;;;;;14.32;53.79;100572.19;5054720;28;19916;-38
2022/09/24 00:47:39;;;;;;;;;;;;;;;14.31;53.73;100571.31;5042629;28;19962;-37
2022/09/24 00:50:17;;;;;;;;;;;;;;;14.27;53.79;100571.47;5040055;28;19924;-36
2022/09/24 00:52:47;;;;;;;;;;;;;;;14.25;53.74;100576.81;5029155;28;19967;-37
2022/09/24 00:55:12;;;;;;;;;;;;;;;14.26;53.88;100567.94;5052586;28;19943;-37
2022/09/24 00:57:38;;;;;;;;;;;;;;;14.22;53.95;100563.63;5054183;28;20293;-37
2022/09/24 01:00:03;;;;;;;;;;;;;;;14.22;54.03;100567.16;5054371;28;20374;-36
2022/09/24 01:02:32;;;;;;;;;;;;;;;14.20;53.94;100573.38;5044375;28;19996;-37
2022/09/24 01:04:57;;;;;;;;;;;;;;;14.16;53.94;100556.69;5036712;28;19912;-37
2022/09/24 01:07:22;;;;;;;;;;;;;;;14.16;54.11;100562.00;5039960;28;20258;-37
2022/09/24 01:09:47;;;;;;;;;;;;;;;14.15;53.96;100565.56;5054548;28;20391;-37
2022/09/24 01:12:18;;;;;;;;;;;;;;;14.15;54.03;100562.03;5052342;28;20066;-37
2022/09/24 01:14:58;;;;;;;;;;;;;;;14.09;54.13;100568.38;5045353;28;20519;-37
2022/09/24 01:17:25;;;;;;;;;;;;;;;14.08;53.87;100563.97;5052032;28;19971;-37
2022/09/24 01:20:02;;;;;;;;;;;;;;;14.06;54.26;100560.47;5035356;28;19916;-37
2022/09/24 01:22:31;;;;;;;;;;;;;;;14.06;54.23;100565.78;5035282;28;19931;-37
2022/09/24 01:24:57;;;;;;;;;;;;;;;14.06;54.08;100563.13;5034896;28;19962;-37
2022/09/24 01:27:42;;;;;;;;;;;;;;;14.01;54.31;100562.38;5047538;28;19916;-37
2022/09/24 01:30:10;;;;;;;;;;;;;;;14.02;54.27;100556.16;5044064;28;20413;-37
2022/09/24 01:32:49;;;;;;;;;;;;;;;14.00;54.44;100561.50;5028301;28;20305;-37
2022/09/24 01:35:17;;;;;;;;;;;;;;;14.01;54.33;100568.56;5049463;28;20348;-37
2022/09/24 01:37:43;;;;;;;;;;;;;;;13.97;54.47;100566.88;5045786;28;20370;-37
2022/09/24 01:40:10;;;;;;;;;;;;;;;14.00;54.33;100561.50;5047889;28;19916;-37
2022/09/24 01:42:36;;;;;;;;;;;;;;;13.97;54.37;100556.28;5030609;28;19928;-37
2022/09/24 01:45:01;;;;;;;;;;;;;;;13.94;54.34;100554.56;5032058;28;20468;-37
2022/09/24 01:47:38;;;;;;;;;;;;;;;13.93;54.58;100554.59;5030528;28;20019;-37
2022/09/24 01:50:04;;;;;;;;;;;;;;;13.91;54.28;100549.34;5047650;28;19963;-36
2022/09/24 01:52:30;;;;;;;;;;;;;;;13.90;54.53;100560.88;5052269;28;19921;-37
2022/09/24 01:54:56;;;;;;;;;;;;;;;13.88;54.32;100549.44;5034777;28;19925;-37
2022/09/24 01:57:31;;;;;;;;;;;;;;;13.86;54.51;100548.59;5051554;28;20016;-37
2022/09/24 02:00:26;;;;;;;;;;;;;;;13.84;54.38;100542.47;5011457;28;19927;-37
2022/09/24 02:03:23;;;;;;;;;;;;;;;13.82;54.45;100549.59;5038920;28;20346;-37
2022/09/24 02:06:02;;;;;;;;;;;;;;;13.82;54.48;100542.53;5013273;28;20310;-37
2022/09/24 02:08:32;;;;;;;;;;;;;;;13.80;54.47;100538.13;5024341;28;19924;-37
2022/09/24 02:11:00;;;;;;;;;;;;;;;13.77;54.48;100541.75;5058443;28;19916;-38
2022/09/24 02:13:26;;;;;;;;;;;;;;;13.76;54.57;100533.81;5050196;28;20482;-37
2022/09/24 02:15:53;;;;;;;;;;;;;;;13.75;54.62;100532.09;5033788;28;19927;-37
2022/09/24 02:18:22;;;;;;;;;;;;;;;13.73;54.61;100530.34;5032248;28;19917;-37
2022/09/24 02:20:47;;;;;;;;;;;;;;;13.70;54.48;100527.78;5050333;28;19917;-36
2022/09/24 02:23:14;;;;;;;;;;;;;;;13.69;54.63;100526.03;5032930;28;20374;-37
2022/09/24 02:25:41;;;;;;;;;;;;;;;13.69;54.71;100523.41;5038698;28;19917;-37
2022/09/24 02:28:07;;;;;;;;;;;;;;;13.65;54.65;100534.97;5045619;28;19917;-37
2022/09/24 02:30:32;;;;;;;;;;;;;;;13.65;54.65;100534.09;5051283;28;19924;-37
2022/09/24 02:32:58;;;;;;;;;;;;;;;13.63;54.78;100525.31;5036397;28;19970;-37
2022/09/24 02:35:23;;;;;;;;;;;;;;;13.61;54.88;100528.00;5026861;28;19999;-37
2022/09/24 02:37:48;;;;;;;;;;;;;;;13.62;54.73;100524.44;5032487;28;20162;-37
2022/09/24 02:40:15;;;;;;;;;;;;;;;13.58;54.91;100526.28;5045896;28;19917;-37
2022/09/24 02:42:41;;;;;;;;;;;;;;;13.57;54.92;100526.34;5048476;28;20035;-38
2022/09/24 02:45:06;;;;;;;;;;;;;;;13.56;54.72;100521.94;5048840;28;20020;-38
2022/09/24 02:47:31;;;;;;;;;;;;;;;13.53;54.86;100520.22;5048671;28;19924;-37
2022/09/24 02:49:57;;;;;;;;;;;;;;;13.50;54.86;100515.00;5040017;28;20456;-37
2022/09/24 02:52:22;;;;;;;;;;;;;;;13.51;54.85;100513.22;5032617;28;20015;-37
2022/09/24 02:54:49;;;;;;;;;;;;;;;13.46;55.10;100514.19;5032610;28;19995;-36
2022/09/24 02:57:14;;;;;;;;;;;;;;;13.46;55.00;100521.25;5048614;28;19924;-37
2022/09/24 02:59:39;;;;;;;;;;;;;;;13.43;55.01;100516.91;5043892;28;20016;-37
2022/09/24 03:02:07;;;;;;;;;;;;;;;13.43;54.98;100511.59;5050744;28;20297;-37
2022/09/24 03:04:51;;;;;;;;;;;;;;;13.41;54.93;100515.19;5039941;28;19917;-38
2022/09/24 03:07:17;;;;;;;;;;;;;;;13.34;55.00;100504.75;5047393;28;20292;-37
2022/09/24 03:09:42;;;;;;;;;;;;;;;13.34;54.93;100517.13;5053058;28;19917;-37
2022/09/24 03:12:07;;;;;;;;;;;;;;;13.34;55.24;100511.84;5052464;28;19921;-37
2022/09/24 03:14:32;;;;;;;;;;;;;;;13.34;54.97;100514.47;5053506;28;19921;-37
2022/09/24 03:16:58;;;;;;;;;;;;;;;13.32;54.82;100516.28;5050832;28;19916;-36
2022/09/24 03:19:23;;;;;;;;;;;;;;;13.30;55.06;100504.84;5051619;28;19986;-37
2022/09/24 03:21:48;;;;;;;;;;;;;;;13.28;55.29;100504.03;5055200;28;20395;-37
2022/09/24 03:24:13;;;;;;;;;;;;;;;13.24;54.91;100503.19;5052005;28;20421;-38
2022/09/24 03:26:41;;;;;;;;;;;;;;;13.25;54.98;100504.09;5054756;28;20380;-37
2022/09/24 03:29:10;;;;;;;;;;;;;;;13.22;55.07;100499.72;5033749;28;19917;-37
2022/09/24 03:31:35;;;;;;;;;;;;;;;13.19;55.27;100503.31;5048197;28;19931;-37
2022/09/24 03:34:00;;;;;;;;;;;;;;;13.20;55.21;100507.72;5049694;28;19992;-37
2022/09/24 03:36:26;;;;;;;;;;;;;;;13.19;55.06;100503.31;5052601;28;20007;-36
2022/09/24 03:38:54;;;;;;;;;;;;;;;13.17;55.35;100507.78;5047262;28;19924;-37
2022/09/24 03:41:19;;;;;;;;;;;;;;;13.15;55.41;100506.97;5047489;28;20012;-38
2022/09/24 03:43:44;;;;;;;;;;;;;;;13.13;55.40;100500.81;5051447;28;20004;-37
2022/09/24 03:46:10;;;;;;;;;;;;;;;13.14;55.21;100497.25;5031650;28;19936;-37
2022/09/24 03:48:36;;;;;;;;;;;;;;;13.12;55.34;100499.06;5046511;28;19928;-37
2022/09/24 03:51:19;;;;;;;;;;;;;;;13.10;55.11;100490.28;5044958;28;19920;-37
2022/09/24 03:53:45;;;;;;;;;;;;;;;13.08;55.42;100484.16;5051701;28;19917;-37
2022/09/24 03:56:10;;;;;;;;;;;;;;;13.09;55.50;100477.97;5051874;28;19975;-37
2022/09/24 03:58:37;;;;;;;;;;;;;;;13.07;55.54;100474.47;5044427;28;19916;-38
2022/09/24 04:01:12;;;;;;;;;;;;;;;13.03;55.46;100478.09;5059935;28;19916;-37
2022/09/24 04:03:37;;;;;;;;;;;;;;;13.03;55.57;100473.66;5050165;28;20896;-37
2022/09/24 04:06:03;;;;;;;;;;;;;;;13.03;55.54;100473.66;5057322;28;19927;-38
2022/09/24 04:08:29;;;;;;;;;;;;;;;13.03;55.51;100472.78;5032894;28;19924;-36
2022/09/24 04:10:55;;;;;;;;;;;;;;;13.00;55.59;100478.19;5051786;28;19924;-37
2022/09/24 04:13:20;;;;;;;;;;;;;;;12.99;55.48;100469.34;5053392;28;19931;-37
2022/09/24 04:15:46;;;;;;;;;;;;;;;12.98;55.59;100474.69;5061642;28;20270;-37
2022/09/24 04:18:12;;;;;;;;;;;;;;;12.95;55.59;100476.47;5054994;28;19917;-37
2022/09/24 04:20:37;;;;;;;;;;;;;;;12.94;55.76;100471.25;5053143;28;20388;-37
2022/09/24 04:23:03;;;;;;;;;;;;;;;12.92;55.71;100465.97;5052905;28;19925;-37
2022/09/24 04:25:29;;;;;;;;;;;;;;;12.91;55.45;100472.16;5028734;28;19974;-37
2022/09/24 04:27:58;;;;;;;;;;;;;;;12.91;55.49;100477.44;5054225;28;19962;-38
2022/09/24 04:30:24;;;;;;;;;;;;;;;12.91;55.69;100473.94;5036250;28;19916;-37
2022/09/24 04:32:52;;;;;;;;;;;;;;;12.88;55.39;100474.91;5052830;28;20304;-37
2022/09/24 04:35:22;;;;;;;;;;;;;;;12.85;55.66;100466.13;5053146;28;20305;-36
2022/09/24 04:37:47;;;;;;;;;;;;;;;12.86;55.43;100471.41;5051471;28;19966;-37
2022/09/24 04:40:13;;;;;;;;;;;;;;;12.81;55.42;100460.06;5032835;28;20007;-37
2022/09/24 04:42:38;;;;;;;;;;;;;;;12.84;55.48;100465.28;5048856;28;21435;-37
2022/09/24 04:45:05;;;;;;;;;;;;;;;12.81;55.38;100462.69;5053456;28;19916;-36
2022/09/24 04:47:30;;;;;;;;;;;;;;;12.79;55.86;100459.19;5017439;28;20015;-35
2022/09/24 04:49:59;;;;;;;;;;;;;;;12.79;55.76;100464.50;5053773;28;20004;-36
2022/09/24 04:52:28;;;;;;;;;;;;;;;12.78;55.67;100457.47;5050599;28;19967;-35
2022/09/24 04:54:56;;;;;;;;;;;;;;;12.77;55.68;100461.03;5046553;28;19960;-35
2022/09/24 04:57:21;;;;;;;;;;;;;;;12.73;55.76;100467.28;5048537;28;19924;-36
2022/09/24 04:59:47;;;;;;;;;;;;;;;12.73;55.56;100467.28;5055604;28;19917;-37
2022/09/24 05:02:12;;;;;;;;;;;;;;;12.72;55.85;100460.25;5051018;28;19916;-36
2022/09/24 05:04:37;;;;;;;;;;;;;;;12.71;55.41;100467.31;5031154;28;19917;-36
2022/09/24 05:07:03;;;;;;;;;;;;;;;12.72;55.63;100468.19;5061924;28;19916;-35
2022/09/24 05:09:30;;;;;;;;;;;;;;;12.67;55.47;100471.78;5052090;28;19924;-37
2022/09/24 05:11:57;;;;;;;;;;;;;;;12.67;55.54;100477.09;5046889;28;19916;-36
2022/09/24 05:14:22;;;;;;;;;;;;;;;12.65;55.71;100481.56;5033992;28;20369;-36
2022/09/24 05:16:47;;;;;;;;;;;;;;;12.63;56.01;100482.47;5052672;28;19917;-35
2022/09/24 05:19:12;;;;;;;;;;;;;;;12.62;56.03;100484.25;5052426;28;19917;-36
2022/09/24 05:21:43;;;;;;;;;;;;;;;12.61;55.94;100481.63;5052046;28;19928;-35
2022/09/24 05:24:08;;;;;;;;;;;;;;;12.61;55.76;100493.09;5047047;28;19921;-36
2022/09/24 05:29:18;;;;;;;;;;;;;;;12.57;56.21;100491.41;5051273;28;20388;-35
2022/09/24 05:31:43;;;;;;;;;;;;;;;12.55;56.33;100498.50;5029821;28;19921;-36
2022/09/24 05:34:08;;;;;;;;;;;;;;;12.54;56.31;100497.63;5051809;28;20370;-36
2022/09/24 05:36:34;;;;;;;;;;;;;;;12.55;56.00;100503.81;5060687;28;20387;-36
2022/09/24 05:38:59;;;;;;;;;;;;;;;12.54;56.14;100499.41;5051101;28;20374;-36
2022/09/24 05:41:24;;;;;;;;;;;;;;;12.52;56.31;100498.56;5033855;28;19925;-36
2022/09/24 05:43:50;;;;;;;;;;;;;;;12.52;56.27;100496.81;5051831;28;19917;-36
2022/09/24 05:46:15;;;;;;;;;;;;;;;12.50;56.24;100495.94;5053337;28;19927;-35
2022/09/24 05:48:40;;;;;;;;;;;;;;;12.51;56.55;100496.84;5048834;28;20336;-36
2022/09/24 05:51:05;;;;;;;;;;;;;;;12.50;56.38;100489.81;5050196;28;19956;-35
2022/09/24 05:56:41;;;;;;;;;;;;;;;12.50;56.59;100495.09;5044367;28;20065;-35
2022/09/24 05:59:06;;;;;;;;;;;;;;;12.51;56.59;100491.53;5050004;28;20396;-36
2022/09/24 06:01:31;;;;;;;;;;;;;;;12.51;56.79;100492.38;5042801;28;19917;-35
2022/09/24 06:03:56;;;;;;;;;;;;;;;12.52;56.45;100498.56;5044325;28;19921;-35
2022/09/24 06:06:22;;;;;;;;;;;;;;;12.53;56.68;100487.06;5048370;28;20291;-36
2022/09/24 06:08:47;;;;;;;;;;;;;;;12.52;56.56;100486.22;5033871;28;20138;-35
2022/09/24 06:11:13;;;;;;;;;;;;;;;12.54;57.01;100487.03;5048709;28;19917;-35
2022/09/24 06:13:38;;;;;;;;;;;;;;;12.57;56.65;100484.34;5047158;28;19925;-36
2022/09/24 06:16:04;;;;;;;;;;;;;;;12.58;56.68;100482.56;5041312;28;20385;-37
2022/09/24 06:18:30;;;;;;;;;;;;;;;12.57;56.51;100481.69;5042163;28;20027;-35
2022/09/24 06:20:59;;;;;;;;;;;;;;;12.59;56.67;100486.97;5048960;28;21322;-35
2022/09/24 06:23:24;;;;;;;;;;;;;;;12.62;56.66;100486.03;5042375;28;20004;-37
2022/09/24 06:25:52;;;;;;;;;;;;;;;12.63;56.76;100486.00;5048410;28;19999;-35
2022/09/24 06:28:17;;;;;;;;;;;;;;;12.63;56.75;100483.34;5048125;28;19913;-35
2022/09/24 06:30:43;;;;;;;;;;;;;;;12.63;56.93;100486.00;5046550;28;20354;-36
2022/09/24 06:33:09;;;;;;;;;;;;;;;12.65;56.86;100483.31;5028629;28;20008;-38
2022/09/24 06:35:35;;;;;;;;;;;;;;;12.67;56.81;100481.53;5048164;28;19925;-35
2022/09/24 06:38:01;;;;;;;;;;;;;;;12.67;56.81;100481.53;5043979;28;20393;-35
2022/09/24 06:40:26;;;;;;;;;;;;;;;12.72;56.86;100484.06;5042686;28;19927;-35
2022/09/24 06:42:52;;;;;;;;;;;;;;;12.72;56.66;100484.06;5042738;28;19917;-36
2022/09/24 06:45:19;;;;;;;;;;;;;;;12.72;56.95;100484.94;5027338;28;20421;-36
2022/09/24 06:47:54;;;;;;;;;;;;;;;12.75;57.01;100494.56;5046532;28;19913;-35
2022/09/24 06:50:20;;;;;;;;;;;;;;;12.76;56.70;100485.72;5026858;28;19968;-36
2022/09/24 06:52:45;;;;;;;;;;;;;;;12.77;56.38;100495.44;5048714;28;19990;-35
2022/09/24 06:55:10;;;;;;;;;;;;;;;12.79;56.48;100499.78;5049090;28;19921;-35
2022/09/24 06:57:35;;;;;;;;;;;;;;;12.81;56.65;100494.47;5043673;28;19959;-36
2022/09/24 07:00:01;;;;;;;;;;;;;;;12.85;56.45;100497.91;5033507;28;19995;-36
2022/09/24 07:02:29;;;;;;;;;;;;;;;12.87;56.37;100501.41;5049296;28;19925;-35
2022/09/24 07:04:55;;;;;;;;;;;;;;;12.91;56.22;100498.63;5046289;28;19916;-36
2022/09/24 07:07:29;;;;;;;;;;;;;;;12.97;56.15;100500.28;5047056;28;19927;-36
2022/09/24 07:09:55;;;;;;;;;;;;;;;13.00;56.50;100504.66;5038218;28;19950;-38
2022/09/24 07:12:20;;;;;;;;;;;;;;;13.04;56.37;100498.38;5041750;28;20421;-36
2022/09/24 07:14:46;;;;;;;;;;;;;;;13.09;56.16;100494.72;5050585;28;19917;-36
2022/09/24 07:17:11;;;;;;;;;;;;;;;13.15;56.21;100499.00;5042116;28;20400;-36
2022/09/24 07:19:37;;;;;;;;;;;;;;;13.19;55.99;100495.38;5029221;28;20418;-36
2022/09/24 07:22:03;;;;;;;;;;;;;;;13.27;56.20;100497.00;5045091;28;20365;-35
2022/09/24 07:24:29;;;;;;;;;;;;;;;13.34;55.99;100493.28;5044854;28;19920;-36
2022/09/24 07:26:54;;;;;;;;;;;;;;;13.39;55.84;100499.34;5044135;28;19928;-38
2022/09/24 07:29:31;;;;;;;;;;;;;;;13.45;55.88;100496.56;5032624;28;19917;-38
2022/09/24 07:31:57;;;;;;;;;;;;;;;13.54;55.81;100499.91;5026340;28;20325;-38
2022/09/24 07:34:22;;;;;;;;;;;;;;;13.59;55.70;100498.03;5049400;28;19946;-38
2022/09/24 07:36:47;;;;;;;;;;;;;;;13.63;55.68;100494.38;5026341;28;19924;-37
2022/09/24 07:39:12;;;;;;;;;;;;;;;13.68;55.69;100496.94;5049750;28;19924;-38
2022/09/24 07:41:39;;;;;;;;;;;;;;;13.75;55.77;100492.34;5051774;28;19920;-38
2022/09/24 07:44:06;;;;;;;;;;;;;;;13.82;55.55;100481.56;5050817;28;19924;-38
2022/09/24 07:46:31;;;;;;;;;;;;;;;13.85;55.83;100488.53;5048748;28;20016;-38
2022/09/24 07:48:56;;;;;;;;;;;;;;;13.91;55.89;100485.72;5041638;28;20062;-38
2022/09/24 07:51:22;;;;;;;;;;;;;;;14.02;55.55;100484.56;5050142;28;20061;-38
2022/09/24 07:53:48;;;;;;;;;;;;;;;14.10;55.72;100495.84;5028539;28;20010;-38
2022/09/24 07:56:15;;;;;;;;;;;;;;;14.13;55.71;100501.06;5044848;28;21295;-38
2022/09/24 07:58:40;;;;;;;;;;;;;;;14.21;55.58;100496.41;5043736;28;19923;-38
2022/09/24 08:01:05;;;;;;;;;;;;;;;14.23;55.39;100494.63;5058070;28;19959;-38
2022/09/24 08:03:31;;;;;;;;;;;;;;;14.27;55.55;100490.09;5050674;28;19963;-38
2022/09/24 08:05:58;;;;;;;;;;;;;;;14.34;55.38;100501.41;5048426;28;20377;-38
2022/09/24 08:08:23;;;;;;;;;;;;;;;14.37;55.50;100498.66;5027484;28;19928;-38
2022/09/24 08:10:49;;;;;;;;;;;;;;;14.41;55.68;100508.28;5049672;28;19921;-38
2022/09/24 08:13:14;;;;;;;;;;;;;;;14.41;55.60;100500.34;5018474;28;19923;-38
2022/09/24 08:15:40;;;;;;;;;;;;;;;14.48;55.68;100499.22;5045861;28;19928;-38
2022/09/24 08:18:05;;;;;;;;;;;;;;;14.53;55.71;100507.06;5045868;28;19936;-38
2022/09/24 08:20:32;;;;;;;;;;;;;;;14.57;55.68;100499.91;5050966;28;20381;-38
2022/09/24 08:23:05;;;;;;;;;;;;;;;14.63;55.65;100502.34;5040692;28;20019;-38
2022/09/24 08:25:30;;;;;;;;;;;;;;;14.64;55.49;100504.09;5049878;28;19967;-38
2022/09/24 08:28:03;;;;;;;;;;;;;;;14.66;55.65;100504.03;5051928;28;19925;-38
2022/09/24 08:30:29;;;;;;;;;;;;;;;14.70;55.50;100511.88;5025745;28;19924;-38
2022/09/24 08:32:55;;;;;;;;;;;;;;;14.75;55.58;100507.31;5047153;28;19952;-38
2022/09/24 08:35:20;;;;;;;;;;;;;;;14.76;55.78;100502.88;5057526;28;19955;-38
2022/09/24 08:37:45;;;;;;;;;;;;;;;14.81;55.73;100505.44;5050621;28;19936;-38
2022/09/24 08:40:18;;;;;;;;;;;;;;;14.84;56.01;100516.81;5050993;28;19913;-38
2022/09/24 08:42:48;;;;;;;;;;;;;;;14.90;55.85;100521.06;5051766;28;19917;-38
2022/09/24 08:47:59;;;;;;;;;;;;;;;14.96;56.16;100512.94;5054813;28;19924;-38
2022/09/24 08:50:25;;;;;;;;;;;;;;;15.01;55.99;100518.97;5033753;28;20011;-38
2022/09/24 08:53:09;;;;;;;;;;;;;;;15.06;56.10;100515.31;5034166;28;20012;-38
2022/09/24 08:55:42;;;;;;;;;;;;;;;15.13;55.90;100512.44;5051489;28;19917;-37
2022/09/24 08:58:16;;;;;;;;;;;;;;;15.20;56.25;100518.41;5053271;28;19913;-38
2022/09/24 09:00:47;;;;;;;;;;;;;;;15.29;56.40;100527.88;5059059;28;20390;-38
2022/09/24 09:03:19;;;;;;;;;;;;;;;15.37;56.34;100511.69;5039639;28;19917;-38
2022/09/24 09:05:56;;;;;;;;;;;;;;;15.43;56.22;100514.16;5036454;28;20145;-38
2022/09/24 09:08:33;;;;;;;;;;;;;;;15.54;56.07;100519.13;5040414;28;20003;-38
2022/09/24 09:10:59;;;;;;;;;;;;;;;15.61;56.02;100515.34;5050201;28;20002;-38
2022/09/24 09:13:26;;;;;;;;;;;;;;;15.70;55.71;100514.19;5035660;28;19929;-38
2022/09/24 09:16:24;;;;;;;;;;;;;;;15.80;55.51;100511.22;5068211;28;19927;-38
2022/09/24 09:18:50;;;;;;;;;;;;;;;15.88;55.44;100519.81;4997914;23;19937;-38
2022/09/24 09:21:36;;;;;;;;;;;;;;;15.97;55.42;100516.84;5000998;28;19917;-38
2022/09/24 09:24:02;;;;;;;;;;;;;;;16.08;55.50;100515.63;5034941;28;20396;-38
2022/09/24 09:26:27;;;;;;;;;;;;;;;16.17;55.51;100515.28;5034869;28;19943;-38
2022/09/24 09:28:52;;;;;;;;;;;;;;;16.26;55.69;100514.97;5043447;28;20343;-38
2022/09/24 09:31:28;;;;;;;;;;;;;;;16.38;55.57;100510.16;5025076;28;20400;-39
2022/09/24 09:34:07;;;;;;;;;;;;;;;16.51;55.66;100513.22;5031747;28;19950;-38
2022/09/24 09:36:40;;;;;;;;;;;;;;;16.63;55.36;100511.91;5049076;28;19928;-38
2022/09/24 09:39:27;;;;;;;;;;;;;;;16.76;55.16;100509.66;5034670;28;19967;-38
2022/09/24 09:42:12;;;;;;;;;;;;;;;16.89;55.07;100507.38;5033143;28;20412;-37
2022/09/24 09:44:40;;;;;;;;;;;;;;;17.04;54.57;100504.13;5037416;28;19924;-38
2022/09/24 09:47:16;;;;;;;;;;;;;;;17.17;54.66;100503.66;5044875;28;20017;-38
2022/09/24 09:49:41;;;;;;;;;;;;;;;17.34;54.66;100507.47;5000818;28;20018;-37
2022/09/24 09:52:17;;;;;;;;;;;;;;;17.45;54.52;100499.91;5016864;28;20357;-38
2022/09/24 09:54:43;;;;;;;;;;;;;;;17.59;54.51;100503.78;5034698;28;19921;-38
2022/09/24 09:57:11;;;;;;;;;;;;;;;17.69;54.23;100503.38;5015701;28;20401;-37
2022/09/24 09:59:36;;;;;;;;;;;;;;;17.82;54.21;100506.41;5036724;28;19913;-38
2022/09/24 10:02:02;;;;;;;;;;;;;;;17.95;53.86;100503.19;5036850;28;20377;-38
2022/09/24 10:04:33;;;;;;;;;;;;;;;18.04;53.68;100494.78;5036820;28;19913;-37
2022/09/24 10:07:08;;;;;;;;;;;;;;;18.18;53.71;100499.53;5038855;28;19923;-38
2022/09/24 10:09:34;;;;;;;;;;;;;;;18.28;53.51;100500.00;5037234;28;20062;-38
2022/09/24 10:12:20;;;;;;;;;;;;;;;18.41;53.06;100500.31;5039367;28;19959;-38
2022/09/24 10:14:55;;;;;;;;;;;;;;;18.52;53.03;100494.53;5024173;28;20034;-39
2022/09/24 10:17:20;;;;;;;;;;;;;;;18.61;52.96;100498.59;5047030;28;20259;-38
2022/09/24 10:19:46;;;;;;;;;;;;;;;18.73;52.94;100497.13;5038464;28;20365;-37
2022/09/24 10:22:22;;;;;;;;;;;;;;;18.85;53.04;100493.88;5011316;28;19912;-38
2022/09/24 10:24:47;;;;;;;;;;;;;;;18.99;52.94;100497.72;5053747;28;20293;-39
2022/09/24 10:27:13;;;;;;;;;;;;;;;19.11;52.51;100488.28;5053216;28;19924;-38
2022/09/24 10:32:24;;;;;;;;;;;;;;;19.38;52.34;100479.88;5051485;28;20392;-39
2022/09/24 10:34:58;;;;;;;;;;;;;;;19.51;52.31;100479.25;5022485;28;20143;-39
2022/09/24 10:37:23;;;;;;;;;;;;;;;19.63;51.84;100477.78;5033075;28;20011;-39
2022/09/24 10:40:08;;;;;;;;;;;;;;;19.77;51.63;100487.78;5035797;28;20051;-39
2022/09/24 10:42:33;;;;;;;;;;;;;;;19.87;51.74;100484.53;5053285;28;19917;-38
2022/09/24 10:45:03;;;;;;;;;;;;;;;19.96;51.84;100485.00;5052800;28;19913;-38
2022/09/24 10:47:34;;;;;;;;;;;;;;;20.05;51.66;100489.94;5041917;28;20027;-39
2022/09/24 10:49:59;;;;;;;;;;;;;;;20.15;51.35;100484.97;5037391;28;19963;-39
2022/09/24 10:52:45;;;;;;;;;;;;;;;20.25;51.07;100485.34;5046442;28;20344;-38
2022/09/24 10:55:32;;;;;;;;;;;;;;;20.35;51.37;100478.56;5015211;28;19985;-39
2022/09/24 10:58:06;;;;;;;;;;;;;;;20.49;50.96;100482.28;5053295;28;19912;-37
2022/09/24 11:01:02;;;;;;;;;;;;;;;20.59;51.17;100479.97;5052508;28;19920;-39
2022/09/24 11:03:41;;;;;;;;;;;;;;;20.73;51.36;100481.88;4978984;28;19957;-39
2022/09/24 11:06:17;;;;;;;;;;;;;;;20.85;51.15;100483.91;5031249;28;19913;-39
2022/09/24 11:08:46;;;;;;;;;;;;;;;20.98;51.09;100478.72;5012237;28;20294;-39
2022/09/24 11:11:23;;;;;;;;;;;;;;;21.11;51.06;100483.44;5018148;28;19923;-39
2022/09/24 11:13:55;;;;;;;;;;;;;;;21.22;50.93;100475.63;5033639;28;19939;-39
2022/09/24 11:16:27;;;;;;;;;;;;;;;21.34;50.40;100479.41;5032844;28;19921;-39
2022/09/24 11:19:02;;;;;;;;;;;;;;;21.47;49.08;100478.72;5052841;28;19916;-39
2022/09/24 11:21:46;;;;;;;;;;;;;;;21.54;49.29;100474.69;5034736;28;19917;-39
2022/09/24 11:24:31;;;;;;;;;;;;;;;21.60;49.32;100468.97;5051399;28;19924;-37
2022/09/24 11:26:59;;;;;;;;;;;;;;;21.71;49.27;100468.34;5032757;28;19917;-37
2022/09/24 11:29:37;;;;;;;;;;;;;;;21.82;48.99;100473.09;5035135;28;20309;-40
2022/09/24 11:32:21;;;;;;;;;;;;;;;21.93;49.19;100467.09;5028193;28;19917;-38
2022/09/24 11:35:05;;;;;;;;;;;;;;;22.05;48.76;100463.66;5016208;28;19917;-39
2022/09/24 11:37:45;;;;;;;;;;;;;;;22.15;48.52;100458.56;5014936;28;19963;-39
2022/09/24 11:40:20;;;;;;;;;;;;;;;22.24;47.77;100459.00;5014918;28;19913;-39
2022/09/24 11:43:00;;;;;;;;;;;;;;;22.34;47.04;100452.06;5043755;28;19920;-39
2022/09/24 11:45:27;;;;;;;;;;;;;;;22.45;47.55;100453.22;5020087;28;20521;-37
2022/09/24 11:48:03;;;;;;;;;;;;;;;22.54;47.94;100458.03;5030932;28;19924;-39
2022/09/24 11:50:48;;;;;;;;;;;;;;;22.64;47.85;100459.19;5051182;28;20003;-39
2022/09/24 11:53:15;;;;;;;;;;;;;;;22.75;47.71;100455.84;5008890;28;19916;-39
2022/09/24 11:55:43;;;;;;;;;;;;;;;22.84;47.41;100448.97;5021571;28;19917;-39
2022/09/24 11:58:08;;;;;;;;;;;;;;;22.97;46.81;100453.56;5031442;28;19940;-38
2022/09/24 12:00:35;;;;;;;;;;;;;;;23.06;47.34;100452.97;5033364;28;20293;-39
2022/09/24 12:03:19;;;;;;;;;;;;;;;23.12;46.95;100447.19;4996223;28;19967;-40
2022/09/24 12:05:52;;;;;;;;;;;;;;;23.19;46.50;100443.13;5037384;28;19917;-39
2022/09/24 12:08:20;;;;;;;;;;;;;;;23.28;45.95;100435.41;5031934;28;19913;-40
2022/09/24 12:11:02;;;;;;;;;;;;;;;23.35;46.49;100431.38;5052337;28;20007;-39
2022/09/24 12:13:29;;;;;;;;;;;;;;;23.44;46.34;100440.66;5019989;28;19950;-36
2022/09/24 12:16:06;;;;;;;;;;;;;;;23.54;45.97;100435.53;5013996;28;19928;-37
2022/09/24 12:18:39;;;;;;;;;;;;;;;23.67;45.69;100436.38;5016039;28;19917;-39
2022/09/24 12:21:07;;;;;;;;;;;;;;;23.76;45.42;100436.72;5018472;28;19960;-39
2022/09/24 12:23:34;;;;;;;;;;;;;;;23.87;45.48;100430.63;5031582;28;19921;-40
2022/09/24 12:25:59;;;;;;;;;;;;;;;23.95;45.96;100429.09;5014325;28;19920;-39
2022/09/24 12:34:26;;;;;;;;;;;;;;;24.27;45.43;100429.66;5026811;28;20384;-38
2022/09/24 12:37:02;;;;;;;;;;;;;;;24.34;44.75;100428.25;5026834;28;20238;-40
2022/09/24 12:39:32;;;;;;;;;;;;;;;24.40;44.92;100441.28;5034474;28;20020;-39
2022/09/24 12:41:58;;;;;;;;;;;;;;;24.44;44.40;100421.22;5034495;28;19913;-39
2022/09/24 12:44:42;;;;;;;;;;;;;;;24.50;44.33;100417.22;5034903;28;20360;-39
2022/09/24 12:47:13;;;;;;;;;;;;;;;24.56;44.13;100422.19;5033678;28;20015;-39
2022/09/24 12:49:38;;;;;;;;;;;;;;;24.59;44.12;100421.09;5009949;28;19968;-37
2022/09/24 12:52:15;;;;;;;;;;;;;;;24.61;43.40;100408.38;5036413;28;19913;-39
2022/09/24 12:54:40;;;;;;;;;;;;;;;24.62;43.13;100414.59;5017328;28;19963;-39
2022/09/24 12:57:24;;;;;;;;;;;;;;;24.61;43.05;100413.78;5035380;28;19944;-39
2022/09/24 12:59:49;;;;;;;;;;;;;;;24.62;43.02;100404.69;5035532;28;20362;-39
2022/09/24 13:02:38;;;;;;;;;;;;;;;24.62;43.56;100393.03;5033502;28;19921;-39
2022/09/24 13:05:11;;;;;;;;;;;;;;;24.59;43.24;100399.53;5028694;28;19936;-39